e-Mail: Password: Lost your password? Click here. - Register a new user

c h a v e z j u a r e z . c o m

Weather - Tiempo - Wetter - Temps

METAR DATA MMMX (Mexico City)

Mexico City / Licenci, Mexico (MMMX) 19-26N 099-06W
Jun 20, 2019 - 02:45 AM EDT / 2019.06.20 0645 UTC
Wind: from the E (080 degrees) at 8 MPH (7 KT):0
Visibility: 8 mile(s):0
Sky conditions: mostly cloudy
Temperature: 60 F (16 C)
Dew Point: 53 F (12 C)
Relative Humidity: 77%
Pressure (altimeter): 30.34 in. Hg (1027 hPa)
ob: MMMX 200645Z 08007KT 8SM SCT020 BKN080 16/12 A3034 NOSIG RMK 8/530 HZY
cycle: 7

Mexico City

St. Prex




Current weather alarms for Switzerland


www.wetteralarm.ch